Time;durP1;ratioP1;P1;durP2;ratioP2;P2;SDS_P1;SDS_P2;PMS_P1;PMS_P2;Temp;Humidity;BMP_temperature;BMP_pressure;BME280_temperature;BME280_humidity;BME280_pressure;Samples;Min_cycle;Max_cycle;Signal;HPM_P1;HPM_P2
2022/10/26 00:02:22;;;;;;;6.43;1.45;;;10.90;99.90;;;;;;5054423;28;19944;-76
2022/10/26 00:04:48;;;;;;;;;;;10.80;99.90;;;;;;5055432;28;20036;-77
2022/10/26 00:07:13;;;;;;;6.50;0.98;;;10.70;99.90;;;;;;5034812;28;20359;-76
2022/10/26 00:09:39;;;;;;;;;;;10.60;99.90;;;;;;5034483;28;20055;-76
2022/10/26 00:12:05;;;;;;;7.47;1.15;;;10.60;99.90;;;;;;5034412;28;19912;-76
2022/10/26 00:14:30;;;;;;;;;;;10.50;99.90;;;;;;5034176;28;20112;-76
2022/10/26 00:16:56;;;;;;;8.13;1.52;;;10.40;99.90;;;;;;5052022;28;19982;-76
2022/10/26 00:19:21;;;;;;;;;;;10.40;99.90;;;;;;5052224;28;20053;-76
2022/10/26 00:21:47;;;;;;;14.23;2.33;;;10.30;99.90;;;;;;5034236;28;19904;-75
2022/10/26 00:24:13;;;;;;;;;;;10.40;99.90;;;;;;5052350;28;20028;-76
2022/10/26 00:26:39;;;;;;;10.00;2.15;;;10.20;99.90;;;;;;5051645;28;19912;-76
2022/10/26 00:29:05;;;;;;;;;;;10.20;99.90;;;;;;5052363;28;20029;-76
2022/10/26 00:31:31;;;;;;;3.95;1.20;;;10.10;99.90;;;;;;5051718;28;20004;-76
2022/10/26 00:33:58;;;;;;;;;;;10.20;99.90;;;;;;5033844;28;20078;-76
2022/10/26 00:36:25;;;;;;;5.90;1.45;;;10.10;99.90;;;;;;5051251;28;19919;-76
2022/10/26 00:38:52;;;;;;;7.00;1.90;;;10.20;99.90;;;;;;5033592;28;20032;-76
2022/10/26 00:41:37;;;;;;;5.22;1.20;;;10.30;99.90;;;;;;5033366;28;20397;-76
2022/10/26 00:44:41;;;;;;;2.80;0.77;;;10.30;99.90;;;;;;5051596;28;20037;-76
2022/10/26 00:47:10;;;;;;;8.98;1.67;;;10.30;99.90;;;;;;5051157;28;20029;-76
2022/10/26 00:49:35;;;;;;;11.88;1.23;;;10.30;99.90;;;;;;5033391;28;20097;-76
2022/10/26 00:52:01;;;;;;;;;;;10.40;99.90;;;;;;5051767;28;20465;-75
2022/10/26 00:54:27;;;;;;;8.13;2.05;;;10.30;99.90;;;;;;5033477;28;19998;-76
2022/10/26 00:56:53;;;;;;;;;;;10.40;99.90;;;;;;5033810;28;20040;-76
2022/10/26 00:59:21;;;;;;;7.68;1.90;;;10.30;99.90;;;;;;5032776;28;20339;-76
2022/10/26 01:01:48;;;;;;;10.23;2.20;;;10.30;99.90;;;;;;5033135;28;20039;-76
2022/10/26 01:04:15;;;;;;;7.70;1.65;;;10.30;99.90;;;;;;5033223;28;20558;-76
2022/10/26 01:06:42;;;;;;;5.95;1.83;;;10.20;99.90;;;;;;5050837;28;20028;-76
2022/10/26 01:09:08;;;;;;;9.52;1.83;;;10.20;99.90;;;;;;5050835;28;20143;-76
2022/10/26 01:11:34;;;;;;;6.30;1.50;;;10.20;99.90;;;;;;5050611;28;20059;-76
2022/10/26 01:14:01;;;;;;;;;;;10.40;99.90;;;;;;5033713;28;20032;-76
2022/10/26 01:16:45;;;;;;;12.07;1.80;;;10.50;99.90;;;;;;5032844;28;19923;-76
2022/10/26 01:19:33;;;;;;;7.47;1.20;;;10.60;99.90;;;;;;5033102;28;20489;-76
2022/10/26 01:22:38;;;;;;;6.80;1.42;;;10.80;99.90;;;;;;5032810;28;20029;-75
2022/10/26 01:25:31;;;;;;;6.18;1.63;;;10.90;99.90;;;;;;5047680;28;20025;-76
2022/10/26 01:27:57;;;;;;;6.57;1.45;;;11.00;99.90;;;;;;5032870;28;20036;-76
2022/10/26 01:30:24;;;;;;;;;;;11.20;99.90;;;;;;5051146;28;20075;-76
2022/10/26 01:32:55;;;;;;;8.38;2.00;;;11.20;99.90;;;;;;5050932;28;19943;-76
2022/10/26 01:35:39;;;;;;;7.90;2.60;;;11.20;99.90;;;;;;5051217;28;20097;-76
2022/10/26 01:38:15;;;;;;;9.65;3.38;;;11.20;99.90;;;;;;5033244;28;20039;-76
2022/10/26 01:41:02;;;;;;;18.00;6.90;;;11.20;99.90;;;;;;5033368;28;20500;-76
2022/10/26 01:43:32;;;;;;;10.25;3.28;;;11.20;99.90;;;;;;5050959;28;20053;-75
2022/10/26 01:45:59;;;;;;;10.27;1.65;;;11.10;99.90;;;;;;5050646;28;20037;-76
2022/10/26 01:48:26;;;;;;;6.15;1.77;;;11.20;99.90;;;;;;5050709;28;20036;-76
2022/10/26 01:50:53;;;;;;;7.88;2.33;;;11.30;99.90;;;;;;5032898;28;20028;-76
2022/10/26 01:53:20;;;;;;;11.52;2.45;;;11.30;99.90;;;;;;5033176;28;20555;-76
2022/10/26 01:55:50;;;;;;;8.07;1.40;;;11.40;99.90;;;;;;5033150;28;20025;-76
2022/10/26 01:58:55;;;;;;;6.63;0.93;;;11.50;99.90;;;;;;5051353;28;20028;-75
2022/10/26 02:01:34;;;;;;;3.28;0.70;;;11.70;99.90;;;;;;5051344;28;20017;-76
2022/10/26 02:04:00;;;;;;;3.35;0.70;;;11.70;99.90;;;;;;5051156;28;20363;-76
2022/10/26 02:06:44;;;;;;;;;;;11.90;99.90;;;;;;5033964;28;20500;-76
2022/10/26 02:09:17;;;;;;;6.20;1.40;;;11.90;99.90;;;;;;5032202;28;20297;-77
2022/10/26 02:11:45;;;;;;;4.28;0.88;;;12.00;99.90;;;;;;5050673;28;20093;-75
2022/10/26 02:14:21;;;;;;;4.20;1.00;;;12.00;99.90;;;;;;5033463;28;20076;-76
2022/10/26 02:16:50;;;;;;;4.38;0.68;;;12.10;99.90;;;;;;5051446;28;20668;-76
2022/10/26 02:19:51;;;;;;;6.72;0.88;;;12.10;99.90;;;;;;5033396;28;20497;-76
2022/10/26 02:22:20;;;;;;;4.25;0.82;;;12.10;99.90;;;;;;5031971;28;20037;-76
2022/10/26 02:24:49;;;;;;;4.95;0.90;;;12.10;99.90;;;;;;5033805;28;20492;-76
2022/10/26 02:27:21;;;;;;;4.45;0.90;;;12.00;99.90;;;;;;5032453;28;20116;-76
2022/10/26 02:29:50;;;;;;;6.07;1.13;;;11.90;99.90;;;;;;5049957;28;20029;-76
2022/10/26 02:32:18;;;;;;;4.15;0.80;;;11.80;99.90;;;;;;5032133;28;20429;-76
2022/10/26 02:34:46;;;;;;;2.85;0.88;;;11.70;99.90;;;;;;5031537;28;20025;-76
2022/10/26 02:37:15;;;;;;;2.63;0.60;;;11.80;99.90;;;;;;5049845;28;20868;-76
2022/10/26 02:39:42;;;;;;;2.40;1.02;;;11.70;99.90;;;;;;5031625;28;20627;-76
2022/10/26 02:42:09;;;;;;;2.42;0.65;;;11.70;99.90;;;;;;5050148;28;20048;-76
2022/10/26 02:44:45;;;;;;;3.60;1.20;;;11.60;99.90;;;;;;5031690;28;20401;-75
2022/10/26 02:47:11;;;;;;;5.28;1.02;;;11.60;99.90;;;;;;5031922;28;20033;-76
2022/10/26 02:49:37;;;;;;;3.88;1.20;;;11.50;99.90;;;;;;5031693;28;20293;-76
2022/10/26 02:52:15;;;;;;;;;;;11.30;99.90;;;;;;5032514;28;20119;-76
2022/10/26 02:54:46;;;;;;;12.43;3.80;;;11.20;99.90;;;;;;5031510;28;19905;-76
2022/10/26 02:57:38;;;;;;;9.50;2.78;;;11.00;99.90;;;;;;5049489;28;20053;-76
2022/10/26 03:00:09;;;;;;;7.38;2.70;;;10.90;99.90;;;;;;5031455;28;20119;-76
2022/10/26 03:02:35;;;;;;;3.15;1.40;;;10.80;99.90;;;;;;5031272;28;20502;-76
2022/10/26 03:05:24;;;;;;;6.93;1.75;;;10.80;99.90;;;;;;5031255;28;20390;-76
2022/10/26 03:07:50;;;;;;;6.60;1.70;;;10.80;99.90;;;;;;5031525;28;20052;-75
2022/10/26 03:10:16;;;;;;;;;;;10.70;99.90;;;;;;5031559;28;20080;-76
2022/10/26 03:12:41;;;;;;;4.20;1.65;;;10.60;99.90;;;;;;5049365;28;19905;-76
2022/10/26 03:15:07;;;;;;;;;;;10.50;99.90;;;;;;5049661;28;20104;-76
2022/10/26 03:17:33;;;;;;;10.50;2.90;;;10.50;99.90;;;;;;5031184;28;19913;-76
2022/10/26 03:19:58;;;;;;;;;;;10.40;99.90;;;;;;5032242;28;20032;-76
2022/10/26 03:22:24;;;;;;;5.78;2.15;;;10.40;99.90;;;;;;5033846;28;20539;-76
2022/10/26 03:24:49;;;;;;;;;;;10.30;99.90;;;;;;5035626;28;20025;-76
2022/10/26 03:27:15;;;;;;;11.20;3.70;;;10.30;99.90;;;;;;5035150;28;19908;-76
2022/10/26 03:29:40;;;;;;;;;;;10.20;99.90;;;;;;5053246;28;20096;-76
2022/10/26 03:32:06;;;;;;;4.32;2.40;;;10.20;99.90;;;;;;5034917;28;19908;-76
2022/10/26 03:34:32;;;;;;;;;;;10.20;99.90;;;;;;5053344;28;20021;-76
2022/10/26 03:36:58;;;;;;;5.57;2.42;;;10.20;99.90;;;;;;5035263;28;20400;-74
2022/10/26 03:39:24;;;;;;;;;;;10.20;99.90;;;;;;5035214;28;20029;-75
2022/10/26 03:41:49;;;;;;;9.85;3.50;;;10.20;99.90;;;;;;5034583;28;19905;-76
2022/10/26 03:44:15;;;;;;;;;;;10.10;99.90;;;;;;5035099;28;20075;-76
2022/10/26 03:46:40;;;;;;;11.18;3.63;;;10.10;99.90;;;;;;5034909;28;20383;-76
2022/10/26 03:49:06;;;;;;;;;;;10.10;99.90;;;;;;5035388;28;20131;-75
2022/10/26 03:51:31;;;;;;;14.05;4.13;;;10.10;99.90;;;;;;5052793;28;19905;-75
2022/10/26 03:53:57;;;;;;;;;;;10.10;99.90;;;;;;5052929;28;20508;-76
2022/10/26 03:56:22;;;;;;;8.48;2.72;;;10.00;99.90;;;;;;5052129;28;19917;-75
2022/10/26 03:58:48;;;;;;;;;;;10.00;99.90;;;;;;5052976;28;20029;-76
2022/10/26 04:01:13;;;;;;;12.60;3.40;;;10.00;99.90;;;;;;5034769;28;19912;-76
2022/10/26 04:03:39;;;;;;;;;;;9.90;99.90;;;;;;5052894;28;20558;-76
2022/10/26 04:06:05;;;;;;;6.63;2.42;;;9.80;99.90;;;;;;5052585;28;20560;-76
2022/10/26 04:08:30;;;;;;;;;;;9.80;99.90;;;;;;5052791;28;20025;-76
2022/10/26 04:10:56;;;;;;;4.60;2.08;;;9.70;99.90;;;;;;5034449;28;19993;-76
2022/10/26 04:13:21;;;;;;;;;;;9.60;99.90;;;;;;5052808;28;20082;-76
2022/10/26 04:15:47;;;;;;;7.28;1.45;;;9.60;99.90;;;;;;5034216;28;19912;-76
2022/10/26 04:18:12;;;;;;;;;;;9.60;99.90;;;;;;5052793;28;20086;-76
2022/10/26 04:20:41;;;;;;;10.35;2.03;;;9.60;99.90;;;;;;5034482;28;20330;-76
2022/10/26 04:23:10;;;;;;;5.97;1.48;;;9.60;99.90;;;;;;5034406;28;20040;-76
2022/10/26 04:25:36;;;;;;;4.00;1.40;;;9.50;99.90;;;;;;5034174;28;20025;-76
2022/10/26 04:28:03;;;;;;;;;;;9.50;99.90;;;;;;5034741;28;20036;-76
2022/10/26 04:30:29;;;;;;;8.50;3.73;;;9.50;99.90;;;;;;5052188;28;20456;-76
2022/10/26 04:32:55;;;;;;;7.57;3.22;;;9.40;99.90;;;;;;5033778;28;20406;-76
2022/10/26 04:35:20;;;;;;;;;;;9.40;99.90;;;;;;5034434;28;20025;-76
2022/10/26 04:37:46;;;;;;;10.88;4.57;;;9.40;99.90;;;;;;5052153;28;20453;-76
2022/10/26 04:40:12;;;;;;;;;;;9.30;99.90;;;;;;5064374;28;20037;-76
2022/10/26 04:42:45;;;;;;;9.45;3.88;;;9.30;99.90;;;;;;5071057;28;19920;-75
2022/10/26 04:45:12;;;;;;;12.48;5.00;;;9.30;99.90;;;;;;5070664;28;20021;-75
2022/10/26 04:47:38;;;;;;;8.50;4.93;;;9.20;99.90;;;;;;5053200;28;20538;-75
2022/10/26 04:50:05;;;;;;;12.27;5.97;;;9.20;99.90;;;;;;5070916;28;20104;-75
2022/10/26 04:52:31;;;;;;;11.27;5.75;;;9.10;99.90;;;;;;5052714;28;20028;-75
2022/10/26 04:54:57;;;;;;;;;;;9.10;99.90;;;;;;5071390;28;20044;-75
2022/10/26 04:57:22;;;;;;;11.88;4.18;;;9.10;99.90;;;;;;5070523;28;19916;-75
2022/10/26 04:59:48;;;;;;;;;;;9.00;99.90;;;;;;5052887;28;20033;-75
2022/10/26 05:02:13;;;;;;;6.85;4.32;;;9.00;99.90;;;;;;5070906;28;19909;-75
2022/10/26 05:04:39;;;;;;;;;;;9.00;99.90;;;;;;5053987;28;20032;-75
2022/10/26 05:07:05;;;;;;;5.85;3.00;;;9.00;99.90;;;;;;5050112;28;19915;-75
2022/10/26 05:09:30;;;;;;;;;;;8.90;99.90;;;;;;5044366;28;20041;-75
2022/10/26 05:11:56;;;;;;;7.32;2.72;;;8.90;99.90;;;;;;5052755;28;20415;-75
2022/10/26 05:14:21;;;;;;;;;;;8.90;99.90;;;;;;5053432;28;20040;-75
2022/10/26 05:16:49;;;;;;;8.75;2.80;;;8.90;99.90;;;;;;5070390;28;20208;-75
2022/10/26 05:19:14;;;;;;;9.90;3.00;;;9.00;99.90;;;;;;5070417;28;20532;-75
2022/10/26 05:21:40;;;;;;;;;;;9.00;99.90;;;;;;5070831;28;20044;-75
2022/10/26 05:24:06;;;;;;;11.07;3.15;;;9.00;99.90;;;;;;5052316;28;19908;-75
2022/10/26 05:26:31;;;;;;;;;;;9.20;99.90;;;;;;5070298;28;20043;-75
2022/10/26 05:28:57;;;;;;;10.88;3.10;;;9.20;99.90;;;;;;5052486;28;20388;-75
2022/10/26 05:31:22;;;;;;;;;;;9.30;99.90;;;;;;5070530;28;20035;-75
2022/10/26 05:33:49;;;;;;;6.47;2.70;;;9.30;99.90;;;;;;5070380;28;19986;-75
2022/10/26 05:36:18;;;;;;;9.70;3.25;;;9.20;99.90;;;;;;5052007;28;20036;-75
2022/10/26 05:38:44;;;;;;;7.78;3.10;;;9.20;99.90;;;;;;5052088;28;20024;-75
2022/10/26 05:41:10;;;;;;;9.65;3.30;;;9.20;99.90;;;;;;5070196;28;20408;-75
2022/10/26 05:43:35;;;;;;;;;;;9.20;99.90;;;;;;5052547;28;20029;-75
2022/10/26 05:46:01;;;;;;;9.52;3.35;;;9.30;99.90;;;;;;5070155;28;19916;-75
2022/10/26 05:48:26;;;;;;;;;;;9.30;99.90;;;;;;5070089;28;20078;-75
2022/10/26 05:50:52;;;;;;;8.60;2.95;;;9.40;99.90;;;;;;5051764;28;19916;-75
2022/10/26 05:53:18;;;;;;;;;;;9.50;99.90;;;;;;5069930;28;20074;-75
2022/10/26 05:55:44;;;;;;;8.80;3.75;;;9.50;99.90;;;;;;5069950;28;19911;-75
2022/10/26 05:58:10;;;;;;;;;;;9.60;99.90;;;;;;5051643;28;20032;-75
2022/10/26 06:00:47;;;;;;;11.30;3.78;;;9.70;99.90;;;;;;5069740;28;19908;-75
2022/10/26 06:03:29;;;;;;;;;;;9.80;99.90;;;;;;5052979;28;20040;-75
2022/10/26 06:05:57;;;;;;;12.82;7.25;;;9.90;99.90;;;;;;5070051;28;20658;-76
2022/10/26 06:08:25;;;;;;;11.98;7.38;;;10.00;99.90;;;;;;5051678;28;20039;-75
2022/10/26 06:10:52;;;;;;;9.48;3.45;;;10.10;99.90;;;;;;5068953;28;20052;-76
2022/10/26 06:13:18;;;;;;;8.13;2.90;;;10.20;99.90;;;;;;5051675;28;20031;-75
2022/10/26 06:15:44;;;;;;;6.90;2.10;;;10.40;99.90;;;;;;5069795;28;20020;-75
2022/10/26 06:18:17;;;;;;;;;;;10.50;99.90;;;;;;5052111;28;20515;-75
2022/10/26 06:21:17;;;;;;;4.75;1.70;;;10.70;99.90;;;;;;5069441;28;19982;-76
2022/10/26 06:23:51;;;;;;;10.57;1.80;;;10.90;99.90;;;;;;5070146;28;20028;-75
2022/10/26 06:26:31;;;;;;;5.68;1.45;;;11.20;99.90;;;;;;5052224;28;20031;-75
2022/10/26 06:29:06;;;;;;;6.22;1.70;;;11.50;99.90;;;;;;5052396;28;20444;-75
2022/10/26 06:31:31;;;;;;;3.83;1.40;;;11.80;99.90;;;;;;5069869;28;20024;-75
2022/10/26 06:33:58;;;;;;;;;;;12.20;99.90;;;;;;5070056;28;20029;-75
2022/10/26 06:36:26;;;;;;;8.55;2.53;;;12.40;99.90;;;;;;5069852;28;19960;-75
2022/10/26 06:39:18;;;;;;;9.18;3.00;;;12.40;99.90;;;;;;5069188;28;20028;-76
2022/10/26 06:41:44;;;;;;;8.30;3.10;;;12.40;99.90;;;;;;5065296;28;20067;-75
2022/10/26 06:44:20;;;;;;;7.05;3.78;;;12.40;99.90;;;;;;5070156;28;20099;-76
2022/10/26 06:47:17;;;;;;;7.70;2.92;;;12.40;99.90;;;;;;5070356;28;20017;-75
2022/10/26 06:49:56;;;;;;;5.43;2.53;;;12.40;99.90;;;;;;5030438;28;20044;-75
2022/10/26 06:52:30;;;;;;;11.07;3.63;;;12.40;99.90;;;;;;5052376;28;20032;-75
2022/10/26 06:54:56;;;;;;;10.75;3.40;;;12.40;99.90;;;;;;5053086;28;20033;-75
2022/10/26 06:57:23;;;;;;;;;;;12.50;99.90;;;;;;5056290;28;20094;-75
2022/10/26 07:00:15;;;;;;;5.88;2.65;;;12.50;99.90;;;;;;5075081;28;19908;-76
2022/10/26 07:02:41;;;;;;;6.20;3.03;;;12.60;99.90;;;;;;5056692;28;20032;-75
2022/10/26 07:05:11;;;;;;;;;;;12.60;99.90;;;;;;5055880;28;20479;-76
2022/10/26 07:07:41;;;;;;;14.82;5.35;;;12.70;99.90;;;;;;5073027;28;19937;-76
2022/10/26 07:10:07;;;;;;;9.35;3.80;;;12.70;99.90;;;;;;5073268;28;20054;-75
2022/10/26 07:12:33;;;;;;;17.02;4.15;;;12.70;99.90;;;;;;5055102;28;20496;-76
2022/10/26 07:14:59;;;;;;;;;;;12.80;99.90;;;;;;5073415;28;20062;-76
2022/10/26 07:17:27;;;;;;;15.17;6.60;;;13.00;99.90;;;;;;5055311;28;19912;-76
2022/10/26 07:19:53;;;;;;;10.20;5.68;;;13.00;99.90;;;;;;5073205;28;20458;-75
2022/10/26 07:22:19;;;;;;;9.95;5.75;;;13.20;99.90;;;;;;5072857;28;20082;-76
2022/10/26 07:24:48;;;;;;;;;;;13.30;99.90;;;;;;5055674;28;20032;-75
2022/10/26 07:27:14;;;;;;;20.20;6.80;;;13.60;99.90;;;;;;5073274;28;19916;-75
2022/10/26 07:29:39;;;;;;;;;;;13.60;99.90;;;;;;5073428;28;20404;-75
2022/10/26 07:32:05;;;;;;;7.13;1.95;;;13.90;99.90;;;;;;5054463;28;19959;-76
2022/10/26 07:34:30;;;;;;;7.45;1.50;;;14.10;99.90;;;;;;5054511;28;20097;-75
2022/10/26 07:36:58;;;;;;;;;;;14.10;99.90;;;;;;5072892;28;20044;-75
2022/10/26 07:39:23;;;;;;;9.68;1.33;;;14.40;99.90;;;;;;5072356;28;19904;-75
2022/10/26 07:41:49;;;;;;;8.82;1.73;;;14.50;99.90;;;;;;5054410;28;20052;-75
2022/10/26 07:44:14;;;;;;;;;;;14.70;99.90;;;;;;5054581;28;20555;-75
2022/10/26 07:46:40;;;;;;;8.00;0.80;;;14.70;99.90;;;;;;5072140;28;20003;-75
2022/10/26 07:49:06;;;;;;;4.90;0.57;;;14.90;99.90;;;;;;5072319;28;20185;-76
2022/10/26 07:51:31;;;;;;;3.97;0.68;;;15.10;99.90;;;;;;5072223;28;20029;-76
2022/10/26 07:53:57;;;;;;;9.32;1.20;;;15.40;99.90;;;;;;5055014;28;20044;-75
2022/10/26 07:56:22;;;;;;;6.78;0.73;;;15.70;99.90;;;;;;5072292;28;20029;-76
2022/10/26 07:58:54;;;;;;;4.53;0.80;;;15.90;99.90;;;;;;5071923;28;20096;-75
2022/10/26 08:01:20;;;;;;;4.85;1.02;;;16.10;99.90;;;;;;5053978;28;20025;-75
2022/10/26 08:03:45;;;;;;;3.40;0.85;;;16.30;99.90;;;;;;5053395;28;20071;-75
2022/10/26 08:06:12;;;;;;;7.00;1.35;;;16.70;99.90;;;;;;5053341;28;20060;-78
2022/10/26 08:08:38;;;;;;;6.05;3.28;;;17.10;99.90;;;;;;5051902;28;20031;-76
2022/10/26 08:11:05;;;;;;;4.65;1.45;;;17.70;99.90;;;;;;5053261;28;20056;-76
2022/10/26 08:13:31;;;;;;;10.98;1.65;;;18.40;99.90;;;;;;5053128;28;20344;-72
2022/10/26 08:16:02;;;;;;;5.30;1.55;;;18.80;99.90;;;;;;5070997;28;20021;-74
2022/10/26 08:18:28;;;;;;;5.72;1.10;;;19.30;99.90;;;;;;5070953;28;20123;-75
2022/10/26 08:20:54;;;;;;;6.03;1.10;;;19.50;99.90;;;;;;5071216;28;20162;-77
2022/10/26 08:23:20;;;;;;;4.50;1.00;;;19.60;99.90;;;;;;5071394;28;20033;-77
2022/10/26 08:25:46;;;;;;;6.20;2.15;;;19.60;99.90;;;;;;5053086;28;20032;-77
2022/10/26 08:28:11;;;;;;;7.90;3.25;;;19.60;99.90;;;;;;5070801;28;20039;-77
2022/10/26 08:30:37;;;;;;;5.93;2.15;;;19.60;99.90;;;;;;5070824;28;20082;-77
2022/10/26 08:33:05;;;;;;;5.10;1.85;;;19.50;99.90;;;;;;5070838;28;20515;-77
2022/10/26 08:35:32;;;;;;;5.63;1.27;;;19.70;99.90;;;;;;5052880;28;20542;-76
2022/10/26 08:37:58;;;;;;;5.28;1.38;;;20.30;99.90;;;;;;5052952;28;20529;-77
2022/10/26 08:40:32;;;;;;;4.15;1.65;;;21.00;99.90;;;;;;5070677;28;20029;-77
2022/10/26 08:43:11;;;;;;;5.60;2.80;;;21.80;99.90;;;;;;5070582;28;20043;-76
2022/10/26 08:45:42;;;;;;;7.93;2.47;;;22.40;99.90;;;;;;5052566;28;20654;-74
2022/10/26 08:48:32;;;;;;;7.32;2.10;;;22.90;99.40;;;;;;5070172;28;20040;-75
2022/10/26 08:51:19;;;;;;;4.80;1.60;;;23.40;97.90;;;;;;5052622;28;20032;-77
2022/10/26 08:54:13;;;;;;;6.18;3.90;;;23.80;96.50;;;;;;5052374;28;20362;-77
2022/10/26 08:56:44;;;;;;;15.93;4.55;;;24.10;95.70;;;;;;5052257;28;20127;-77
2022/10/26 08:59:35;;;;;;;9.68;4.97;;;24.60;94.00;;;;;;5052166;28;20032;-77
2022/10/26 09:02:01;;;;;;;8.35;1.88;;;24.80;92.70;;;;;;5051971;28;20105;-77
2022/10/26 09:04:30;;;;;;;6.90;3.15;;;24.70;92.30;;;;;;5066477;28;20029;-77
2022/10/26 09:07:16;;;;;;;9.93;3.33;;;24.80;92.00;;;;;;5050742;28;20580;-77
2022/10/26 09:10:04;;;;;;;19.70;9.55;;;24.70;91.90;;;;;;5054218;28;20033;-77
2022/10/26 09:12:48;;;;;;;20.25;9.23;;;24.60;91.70;;;;;;5049911;28;20037;-76
2022/10/26 09:15:21;;;;;;;9.95;3.83;;;24.40;91.90;;;;;;5049913;28;20028;-77
2022/10/26 09:17:52;;;;;;;14.63;6.32;;;24.50;91.90;;;;;;5049889;28;20064;-77
2022/10/26 09:20:41;;;;;;;13.48;7.50;;;24.50;92.00;;;;;;5032126;28;20029;-76
2022/10/26 09:23:18;;;;;;;15.23;5.60;;;24.80;91.20;;;;;;5049772;28;20025;-77
2022/10/26 09:25:49;;;;;;;9.85;3.03;;;25.10;91.60;;;;;;5032191;28;20070;-76
2022/10/26 09:28:17;;;;;;;8.88;3.80;;;25.20;90.20;;;;;;5031840;28;20086;-77
2022/10/26 09:30:44;;;;;;;5.45;2.63;;;25.20;89.60;;;;;;5049548;28;20063;-76
2022/10/26 09:33:21;;;;;;;8.57;2.00;;;25.20;89.10;;;;;;5049720;28;20028;-76
2022/10/26 09:36:07;;;;;;;9.43;2.20;;;25.10;87.50;;;;;;5031734;28;20458;-77
2022/10/26 09:38:46;;;;;;;8.05;2.00;;;24.50;89.30;;;;;;5049517;28;20033;-76
2022/10/26 09:41:25;;;;;;;4.53;1.77;;;23.90;90.50;;;;;;5049794;28;20021;-76
2022/10/26 09:44:05;;;;;;;6.22;1.65;;;23.30;91.90;;;;;;5049451;28;20048;-74
2022/10/26 09:46:37;;;;;;;9.02;2.22;;;22.90;92.10;;;;;;5049530;28;20025;-74
2022/10/26 09:49:08;;;;;;;3.67;1.40;;;22.40;93.10;;;;;;5031659;28;20511;-76
2022/10/26 09:51:38;;;;;;;4.35;1.83;;;21.90;94.80;;;;;;5049584;28;20025;-76
2022/10/26 09:54:16;;;;;;;5.85;1.45;;;21.70;95.60;;;;;;5031420;28;20464;-77
2022/10/26 09:56:44;;;;;;;7.38;2.10;;;21.40;96.70;;;;;;5031388;28;20041;-78
2022/10/26 09:59:14;;;;;;;3.90;1.17;;;21.10;96.90;;;;;;5049541;28;20049;-77
2022/10/26 10:01:40;;;;;;;4.60;1.38;;;20.80;98.40;;;;;;5049357;28;20090;-76
2022/10/26 10:04:26;;;;;;;5.32;1.73;;;20.50;99.80;;;;;;5031540;28;20473;-80
2022/10/26 10:07:16;;;;;;;7.05;1.85;;;20.40;99.90;;;;;;5031526;28;20033;-78
2022/10/26 10:09:43;;;;;;;5.07;1.35;;;20.20;99.80;;;;;;5026711;28;20127;-78
2022/10/26 10:12:19;;;;;;;4.80;1.40;;;20.10;99.90;;;;;;5031389;28;20044;-79
2022/10/26 10:14:55;;;;;;;;;;;20.00;99.90;;;;;;5031876;28;20107;-77
2022/10/26 10:17:23;;;;;;;4.95;2.00;;;19.70;99.90;;;;;;5031073;28;19919;-79
2022/10/26 10:19:48;;;;;;;5.97;1.75;;;19.60;99.90;;;;;;5049023;28;20591;-77
2022/10/26 10:22:14;;;;;;;3.75;1.20;;;19.40;99.90;;;;;;5031120;28;20025;-77
2022/10/26 10:24:42;;;;;;;7.75;2.08;;;19.40;99.90;;;;;;5031130;28;20044;-77
2022/10/26 10:27:16;;;;;;;4.65;1.63;;;19.40;99.90;;;;;;5049019;28;20388;-77
2022/10/26 10:29:46;;;;;;;6.20;1.83;;;19.30;99.90;;;;;;5049054;28;20021;-75
2022/10/26 10:32:20;;;;;;;7.40;3.15;;;19.30;99.90;;;;;;5048280;28;20029;-78
2022/10/26 10:34:50;;;;;;;6.88;2.10;;;19.20;99.90;;;;;;5048735;28;20036;-76
2022/10/26 10:37:26;;;;;;;5.95;1.67;;;19.20;99.90;;;;;;5048839;28;20048;-77
2022/10/26 10:40:01;;;;;;;7.43;2.67;;;19.20;99.90;;;;;;5031134;28;20100;-76
2022/10/26 10:42:31;;;;;;;12.63;3.47;;;19.20;99.90;;;;;;5049071;28;20067;-77
2022/10/26 10:44:57;;;;;;;6.18;2.13;;;19.20;99.90;;;;;;5048719;28;20025;-77
2022/10/26 10:47:30;;;;;;;7.35;2.42;;;19.10;99.90;;;;;;5031056;28;20047;-76
2022/10/26 10:50:11;;;;;;;8.10;2.30;;;19.10;99.90;;;;;;5031286;28;20485;-75
2022/10/26 10:52:37;;;;;;;7.93;3.28;;;19.00;99.90;;;;;;5030868;28;20079;-76
2022/10/26 10:55:20;;;;;;;8.05;2.75;;;19.10;99.90;;;;;;5048921;28;20021;-76
2022/10/26 10:58:13;;;;;;;5.63;2.65;;;19.00;99.90;;;;;;5030811;28;20065;-76
2022/10/26 11:00:45;;;;;;;10.68;5.18;;;19.00;99.90;;;;;;5048543;28;20075;-76
2022/10/26 11:03:29;;;;;;;6.07;2.45;;;19.00;99.90;;;;;;5030947;28;20029;-76
2022/10/26 11:06:21;;;;;;;8.27;2.55;;;19.10;99.90;;;;;;5030860;28;20065;-77
2022/10/26 11:09:00;;;;;;;7.82;1.70;;;19.20;99.90;;;;;;5030640;28;20037;-76
2022/10/26 11:11:31;;;;;;;7.18;2.55;;;19.30;99.90;;;;;;5030601;28;20524;-76
2022/10/26 11:14:26;;;;;;;11.38;2.78;;;19.40;99.90;;;;;;5048647;28;20036;-78
2022/10/26 11:16:56;;;;;;;4.57;2.20;;;19.40;99.90;;;;;;5030747;28;20409;-76
2022/10/26 11:19:30;;;;;;;7.10;1.80;;;19.40;99.90;;;;;;5048811;28;20025;-75
2022/10/26 11:21:56;;;;;;;6.05;2.03;;;19.40;99.90;;;;;;5048720;28;20067;-76
2022/10/26 11:24:38;;;;;;;7.90;1.60;;;19.30;99.90;;;;;;5048543;28;20408;-75
2022/10/26 11:27:34;;;;;;;3.80;2.05;;;19.40;99.90;;;;;;5050012;28;20485;-77
2022/10/26 11:30:24;;;;;;;6.78;4.35;;;19.30;99.90;;;;;;5048510;28;20033;-77
2022/10/26 11:32:59;;;;;;;11.73;5.97;;;19.20;99.90;;;;;;5030836;28;20684;-78
2022/10/26 11:35:39;;;;;;;10.55;4.13;;;19.20;99.90;;;;;;5048117;28;20043;-78
2022/10/26 11:38:48;;;;;;;5.57;1.95;;;19.20;99.90;;;;;;5030494;28;20044;-77
2022/10/26 11:41:23;;;;;;;4.50;1.63;;;19.50;99.90;;;;;;4947880;29;20046;-80
2022/10/26 11:43:52;;;;;;;6.10;1.75;;;19.80;99.90;;;;;;4934548;29;20020;-80
2022/10/26 11:46:33;;;;;;;6.93;2.30;;;20.10;99.90;;;;;;5010058;28;20037;-81
2022/10/26 11:49:10;;;;;;;5.93;2.22;;;20.30;99.90;;;;;;5033774;28;20513;-78
2022/10/26 11:51:58;;;;;;;5.45;2.72;;;20.40;99.90;;;;;;5034141;28;20544;-77
2022/10/26 11:54:46;;;;;;;3.97;1.52;;;20.40;99.90;;;;;;5033921;28;20025;-79
2022/10/26 11:57:13;;;;;;;5.32;2.47;;;20.40;99.90;;;;;;5051871;28;20041;-79
2022/10/26 11:59:49;;;;;;;3.85;2.00;;;20.50;99.90;;;;;;5051742;28;20071;-82
2022/10/26 12:02:21;;;;;;;5.53;1.90;;;20.60;99.90;;;;;;5051714;28;20119;-76
2022/10/26 12:04:54;;;;;;;5.45;2.50;;;20.60;99.90;;;;;;5051821;28;20056;-77
2022/10/26 12:07:26;;;;;;;5.90;2.70;;;20.60;99.90;;;;;;5033501;28;20116;-80
2022/10/26 12:09:53;;;;;;;6.13;3.17;;;20.70;99.90;;;;;;5033791;28;20041;-78
2022/10/26 12:12:35;;;;;;;6.45;2.30;;;20.70;99.90;;;;;;5033568;28;20037;-81
2022/10/26 12:15:00;;;;;;;8.55;2.90;;;20.60;99.90;;;;;;5051503;28;20524;-77
2022/10/26 12:17:52;;;;;;;5.47;2.70;;;20.60;99.90;;;;;;5051330;28;20083;-80
2022/10/26 12:20:45;;;;;;;4.40;1.90;;;20.50;99.90;;;;;;5051402;28;20037;-80
2022/10/26 12:23:11;;;;;;;5.00;2.53;;;20.40;99.90;;;;;;5033506;28;20116;-80
2022/10/26 12:25:38;;;;;;;8.90;2.75;;;20.40;99.90;;;;;;5033193;28;20025;-78
2022/10/26 12:28:04;;;;;;;4.30;2.17;;;20.40;99.90;;;;;;5033008;28;20029;-78
2022/10/26 12:30:35;;;;;;;8.65;2.30;;;20.40;99.90;;;;;;5050894;28;20031;-79
2022/10/26 12:33:22;;;;;;;5.25;2.40;;;20.40;99.90;;;;;;5050955;28;20430;-79
2022/10/26 12:35:48;;;;;;;9.52;3.78;;;20.40;99.90;;;;;;5032863;28;20055;-78
2022/10/26 12:38:23;;;;;;;18.73;9.15;;;20.20;99.90;;;;;;5050525;28;20140;-77
2022/10/26 12:41:16;;;;;;;11.02;6.65;;;20.10;99.90;;;;;;5050472;28;20021;-78
2022/10/26 12:43:42;;;;;;;25.15;13.43;;;20.00;99.90;;;;;;5032762;28;20024;-77
2022/10/26 12:46:14;;;;;;;26.65;16.13;;;19.80;99.90;;;;;;5050893;28;20033;-77
2022/10/26 12:48:47;;;;;;;10.90;5.15;;;19.70;99.90;;;;;;5032756;28;20036;-78
2022/10/26 12:51:25;;;;;;;6.88;1.58;;;19.70;99.90;;;;;;5033153;28;20124;-77
2022/10/26 12:54:03;;;;;;;8.65;1.50;;;19.60;99.90;;;;;;5050396;28;20020;-78
2022/10/26 12:56:44;;;;;;;4.25;0.90;;;19.50;99.90;;;;;;5032745;28;20048;-75
2022/10/26 12:59:36;;;;;;;2.40;1.00;;;19.50;99.90;;;;;;5032718;28;20040;-77
2022/10/26 13:02:27;;;;;;;3.17;0.80;;;19.40;99.90;;;;;;5050773;28;20028;-77
2022/10/26 13:05:02;;;;;;;10.05;1.05;;;19.40;99.90;;;;;;5050485;28;20131;-79
2022/10/26 13:07:35;;;;;;;6.03;0.80;;;19.40;99.90;;;;;;5050776;28;20455;-81
2022/10/26 13:10:05;;;;;;;1.85;0.70;;;19.40;99.90;;;;;;5032559;28;20068;-79
2022/10/26 13:13:04;;;;;;;2.28;0.70;;;19.40;99.90;;;;;;5050105;28;20033;-78
2022/10/26 13:15:51;;;;;;;4.72;1.48;;;19.40;99.90;;;;;;5032207;28;20040;-80
2022/10/26 13:18:18;;;;;;;3.25;1.00;;;19.40;99.90;;;;;;5050110;28;20606;-77
2022/10/26 13:21:23;;;;;;;3.28;0.73;;;19.40;99.90;;;;;;5050756;28;20028;-77
2022/10/26 13:23:56;;;;;;;3.05;0.77;;;19.40;99.90;;;;;;4933454;29;20811;-77
2022/10/26 13:26:28;;;;;;;2.95;0.80;;;19.40;99.90;;;;;;4949837;29;20041;-77